Time;durP1;ratioP1;P1;durP2;ratioP2;P2;SDS_P1;SDS_P2;PMS_P1;PMS_P2;Temp;Humidity;BMP_temperature;BMP_pressure;BME280_temperature;BME280_humidity;BME280_pressure;Samples;Min_cycle;Max_cycle;Signal;HPM_P1;HPM_P2
2023/04/07 00:02:01;;;;;;;22.13;10.17;;;;;;;4.00;60.95;94894.88;5010989;28;20230;-69
2023/04/07 00:04:26;;;;;;;20.27;10.23;;;;;;;3.90;60.85;94894.19;4997540;28;20234;-69
2023/04/07 00:06:52;;;;;;;17.37;10.03;;;;;;;3.88;60.85;94888.38;5008307;28;20233;-69
2023/04/07 00:09:17;;;;;;;20.30;10.37;;;;;;;4.02;61.05;94892.94;5011540;28;20237;-69
2023/04/07 00:11:43;;;;;;;20.03;10.27;;;;;;;3.79;60.84;94891.94;5001140;28;20669;-70
2023/04/07 00:14:08;;;;;;;19.13;9.80;;;;;;;3.71;62.21;94891.09;5006498;28;20276;-69
2023/04/07 00:16:34;;;;;;;20.70;10.30;;;;;;;3.84;62.34;94888.88;5015404;28;20230;-70
2023/04/07 00:19:00;;;;;;;23.33;11.43;;;;;;;3.31;65.42;94889.19;5005050;28;20225;-69
2023/04/07 00:21:26;;;;;;;28.87;13.07;;;;;;;3.06;68.10;94890.03;5032371;28;20800;-68
2023/04/07 00:23:51;;;;;;;30.37;15.00;;;;;;;2.94;69.19;94886.13;5012685;28;20229;-70
2023/04/07 00:26:17;;;;;;;32.73;15.87;;;;;;;2.84;71.41;94893.19;5011425;28;20229;-69
2023/04/07 00:28:43;;;;;;;36.40;17.77;;;;;;;2.45;73.51;94890.19;5002385;28;20238;-68
2023/04/07 00:31:08;;;;;;;34.53;17.23;;;;;;;2.16;75.83;94892.22;5017248;28;20241;-69
2023/04/07 00:33:34;;;;;;;34.30;16.93;;;;;;;2.23;77.33;94894.06;5013014;28;20245;-68
2023/04/07 00:35:59;;;;;;;35.27;17.30;;;;;;;2.29;77.23;94879.75;5006026;28;20236;-69
2023/04/07 00:38:25;;;;;;;34.43;16.73;;;;;;;2.35;77.29;94885.13;5017440;28;20233;-69
2023/04/07 00:40:56;;;;;;;33.00;16.67;;;;;;;2.56;76.44;94893.31;5004427;28;20778;-70
2023/04/07 00:43:22;;;;;;;32.60;16.47;;;;;;;2.51;76.14;94885.22;5014336;28;20236;-69
2023/04/07 00:45:47;;;;;;;37.87;17.23;;;;;;;2.24;77.87;94890.53;5014711;28;20230;-70
2023/04/07 00:48:13;;;;;;;39.53;16.60;;;;;;;2.12;78.67;94891.72;5023374;28;20249;-70
2023/04/07 00:50:38;;;;;;;34.43;16.50;;;;;;;1.95;78.63;94887.38;5013617;28;20225;-70
2023/04/07 00:53:04;;;;;;;31.53;15.73;;;;;;;2.04;77.79;94895.03;5015383;28;20687;-71
2023/04/07 00:55:29;;;;;;;30.77;15.47;;;;;;;1.97;78.85;94888.84;5005846;28;20268;-71
2023/04/07 00:57:55;;;;;;;34.13;15.90;;;;;;;2.00;78.24;94888.56;5004237;28;20736;-69
2023/04/07 01:00:21;;;;;;;30.73;15.77;;;;;;;2.02;78.25;94891.81;5010882;28;20272;-69
2023/04/07 01:03:03;;;;;;;32.43;15.60;;;;;;;1.94;79.96;94886.56;5015195;28;20325;-70
2023/04/07 01:05:38;;;;;;;31.37;16.07;;;;;;;1.93;79.64;94886.72;5018693;28;20253;-69
2023/04/07 01:08:15;;;;;;;33.17;15.23;;;;;;;1.93;79.15;94884.97;5029048;28;20233;-69
2023/04/07 01:10:55;;;;;;;30.90;15.40;;;;;;;1.91;79.58;94878.31;5023282;28;20280;-69
2023/04/07 01:13:35;;;;;;;29.53;15.40;;;;;;;1.72;80.20;94868.94;5018017;28;20237;-69
2023/04/07 01:16:07;;;;;;;31.40;14.50;;;;;;;1.65;79.91;94870.47;5015651;28;20265;-69
2023/04/07 01:18:33;;;;;;;30.47;14.93;;;;;;;1.69;79.78;94878.75;5013154;28;20246;-70
2023/04/07 01:21:13;;;;;;;30.10;14.53;;;;;;;1.90;80.24;94879.25;5014227;28;20237;-69
2023/04/07 01:23:51;;;;;;;27.97;14.10;;;;;;;2.07;78.90;94883.59;5005073;28;20298;-70
2023/04/07 01:26:28;;;;;;;27.50;14.20;;;;;;;1.93;79.39;94871.22;5015791;28;20258;-69
2023/04/07 01:29:32;;;;;;;29.53;14.37;;;;;;;1.98;78.52;94874.97;5017461;28;20317;-71
2023/04/07 01:32:00;;;;;;;30.00;14.27;;;;;;;2.01;78.86;94869.53;5029830;28;20601;-70
2023/04/07 01:34:25;;;;;;;30.17;13.87;;;;;;;1.83;80.21;94871.31;5005433;28;20327;-70
2023/04/07 01:36:51;;;;;;;31.30;14.17;;;;;;;1.97;79.02;94868.22;5002000;28;20715;-71
2023/04/07 01:39:17;;;;;;;28.37;14.33;;;;;;;1.84;79.51;94874.72;5010791;28;20321;-70
2023/04/07 01:41:42;;;;;;;30.70;14.80;;;;;;;1.89;79.56;94875.06;5007449;28;20248;-69
2023/04/07 01:44:08;;;;;;;29.50;15.07;;;;;;;1.83;80.36;94865.34;5015509;28;20225;-69
2023/04/07 01:46:33;;;;;;;29.83;15.40;;;;;;;1.59;80.56;94865.91;5017495;28;20226;-69
2023/04/07 01:48:58;;;;;;;31.27;16.00;;;;;;;1.57;80.96;94865.25;5016498;28;20276;-69
2023/04/07 01:51:25;;;;;;;34.07;16.27;;;;;;;1.65;82.51;94869.69;5018059;28;20256;-70
2023/04/07 01:53:50;;;;;;;32.23;16.30;;;;;;;1.74;81.16;94866.22;5007946;28;20793;-69
2023/04/07 01:56:16;;;;;;;28.13;15.60;;;;;;;1.77;80.73;94864.16;5020960;28;20225;-69
2023/04/07 01:58:41;;;;;;;33.70;16.40;;;;;;;1.72;82.37;94865.56;5024009;28;20290;-70
2023/04/07 02:01:07;;;;;;;31.90;16.03;;;;;;;1.61;81.97;94863.19;5006963;28;20226;-70
2023/04/07 02:03:39;;;;;;;37.07;15.73;;;;;;;1.76;82.38;94859.16;5028807;28;20237;-71
2023/04/07 02:06:06;;;;;;;32.07;16.40;;;;;;;2.11;81.16;94863.47;5013771;28;20238;-70
2023/04/07 02:08:32;;;;;;;30.83;15.97;;;;;;;1.80;79.88;94861.28;5011584;28;20321;-70
2023/04/07 02:10:58;;;;;;;31.40;15.77;;;;;;;1.69;81.28;94852.97;5033325;28;20256;-70
2023/04/07 02:13:23;;;;;;;33.23;16.70;;;;;;;1.72;82.90;94857.84;5017935;28;20875;-70
2023/04/07 02:15:49;;;;;;;31.83;15.87;;;;;;;2.13;81.00;94857.19;5014854;28;20241;-70
2023/04/07 02:18:15;;;;;;;28.80;15.23;;;;;;;2.10;80.10;94860.09;5006173;28;20284;-70
2023/04/07 02:20:41;;;;;;;30.53;15.73;;;;;;;2.19;80.27;94861.78;5031037;28;20272;-70
2023/04/07 02:23:07;;;;;;;28.00;15.53;;;;;;;1.96;81.42;94861.41;5013680;28;20317;-69
2023/04/07 02:25:33;;;;;;;34.00;16.50;;;;;;;2.07;81.13;94865.53;5012795;28;20229;-70
2023/04/07 02:27:59;;;;;;;33.30;15.97;;;;;;;2.04;80.78;94852.94;5013405;28;20232;-70
2023/04/07 02:30:24;;;;;;;32.33;16.07;;;;;;;1.89;80.81;94854.41;5025538;28;20230;-69
2023/04/07 02:32:50;;;;;;;31.20;16.63;;;;;;;2.09;81.46;94857.63;5019280;28;20235;-69
2023/04/07 02:35:16;;;;;;;30.00;15.47;;;;;;;1.88;83.05;94866.53;5030366;28;20230;-69
2023/04/07 02:37:42;;;;;;;32.53;16.30;;;;;;;1.92;84.31;94860.09;5009708;28;20270;-69
2023/04/07 02:40:08;;;;;;;34.70;15.57;;;;;;;2.02;81.01;94862.59;5014388;28;20276;-69
2023/04/07 02:42:35;;;;;;;29.97;15.93;;;;;;;2.04;81.76;94865.84;5008896;28;20258;-69
2023/04/07 02:45:01;;;;;;;31.33;16.10;;;;;;;1.97;82.87;94857.88;5014172;28;20217;-69
2023/04/07 02:47:26;;;;;;;30.83;15.53;;;;;;;2.24;81.98;94861.31;5050005;28;20259;-69
2023/04/07 02:49:52;;;;;;;32.17;15.10;;;;;;;2.44;80.78;94866.13;5032903;28;20225;-70
2023/04/07 02:52:17;;;;;;;30.47;15.30;;;;;;;2.80;78.69;94871.19;5051246;28;20226;-70
2023/04/07 02:54:43;;;;;;;29.43;14.87;;;;;;;2.57;76.33;94871.72;5004223;28;20237;-72
2023/04/07 02:57:08;;;;;;;28.53;14.10;;;;;;;2.54;76.26;94866.84;5018463;28;20237;-69
2023/04/07 02:59:34;;;;;;;29.43;14.63;;;;;;;2.49;76.42;94869.06;5006983;28;20238;-69
2023/04/07 03:01:59;;;;;;;30.13;14.50;;;;;;;2.52;76.88;94870.53;5016384;28;21000;-69
2023/04/07 03:04:25;;;;;;;29.30;15.00;;;;;;;2.37;79.03;94867.69;5035528;28;20234;-68
2023/04/07 03:06:51;;;;;;;29.43;15.40;;;;;;;2.34;78.29;94870.56;5030234;28;20230;-68
2023/04/07 03:09:16;;;;;;;32.13;15.03;;;;;;;2.62;76.95;94868.66;5033087;28;20271;-70
2023/04/07 03:11:42;;;;;;;31.27;14.80;;;;;;;2.54;76.30;94868.63;5018605;28;20230;-70
2023/04/07 03:14:07;;;;;;;30.37;14.90;;;;;;;2.66;77.18;94870.78;5012937;28;20232;-70
2023/04/07 03:16:33;;;;;;;30.37;15.13;;;;;;;2.57;77.73;94865.72;5015358;28;20265;-69
2023/04/07 03:18:58;;;;;;;27.67;14.90;;;;;;;2.55;78.29;94868.47;5013650;28;20238;-69
2023/04/07 03:21:24;;;;;;;29.50;15.13;;;;;;;2.46;79.05;94871.94;4997943;28;20637;-69
2023/04/07 03:23:49;;;;;;;31.30;14.77;;;;;;;2.52;77.26;94860.22;4995625;28;20234;-69
2023/04/07 03:26:15;;;;;;;34.47;14.63;;;;;;;2.56;77.15;94862.34;5035637;28;20226;-69
2023/04/07 03:28:40;;;;;;;27.80;14.23;;;;;;;2.42;77.13;94855.13;5032126;28;20222;-69
2023/04/07 03:31:06;;;;;;;32.37;15.50;;;;;;;2.29;77.68;94852.16;5007254;28;20229;-69
2023/04/07 03:33:32;;;;;;;31.10;15.17;;;;;;;2.38;77.70;94856.41;5007492;28;20707;-70
2023/04/07 03:35:57;;;;;;;27.47;14.53;;;;;;;2.15;77.66;94854.47;5007831;28;20241;-70
2023/04/07 03:38:23;;;;;;;26.97;14.07;;;;;;;2.17;77.69;94849.97;5014862;28;20226;-69
2023/04/07 03:40:48;;;;;;;29.67;14.13;;;;;;;2.09;78.74;94849.91;5006614;28;20714;-70
2023/04/07 03:43:15;;;;;;;28.83;13.83;;;;;;;2.05;78.25;94859.72;5003751;28;20711;-69
2023/04/07 03:45:41;;;;;;;28.03;13.70;;;;;;;2.22;77.92;94861.44;5016262;28;20245;-69
2023/04/07 03:48:10;;;;;;;30.03;14.33;;;;;;;2.02;80.22;94865.19;5008103;28;20225;-69
2023/04/07 03:50:40;;;;;;;30.53;14.70;;;;;;;2.07;80.63;94868.13;5016661;28;20234;-69
2023/04/07 03:53:05;;;;;;;32.90;15.87;;;;;;;2.13;80.27;94867.50;5007973;28;20783;-69
2023/04/07 03:55:32;;;;;;;40.23;17.57;;;;;;;1.98;80.47;94863.88;4995131;28;20234;-69
2023/04/07 03:57:57;;;;;;;37.43;17.63;;;;;;;1.85;80.67;94866.00;5012711;28;20982;-69
2023/04/07 04:00:23;;;;;;;34.43;17.27;;;;;;;1.95;79.88;94870.13;5024987;28;20239;-69
2023/04/07 04:02:48;;;;;;;39.90;17.70;;;;;;;2.16;79.22;94874.97;5019157;28;20237;-70
2023/04/07 04:05:14;;;;;;;37.83;17.87;;;;;;;2.34;78.16;94874.94;5030238;28;20234;-69
2023/04/07 04:07:39;;;;;;;41.57;17.80;;;;;;;2.20;79.07;94875.50;5012858;28;20225;-69
2023/04/07 04:10:05;;;;;;;36.67;17.83;;;;;;;2.29;79.83;94875.41;5012663;28;20590;-68
2023/04/07 04:12:31;;;;;;;35.50;18.03;;;;;;;2.26;79.12;94882.63;4992957;28;20846;-70
2023/04/07 04:14:57;;;;;;;40.07;19.93;;;;;;;2.30;78.61;94886.50;5029111;28;20230;-69
2023/04/07 04:17:22;;;;;;;38.87;19.23;;;;;;;2.27;79.38;94885.03;5030539;28;20622;-70
2023/04/07 04:19:48;;;;;;;40.13;18.40;;;;;;;2.21;80.33;94884.84;5022417;28;20233;-70
2023/04/07 04:22:13;;;;;;;39.17;18.10;;;;;;;2.45;81.02;94890.19;5031317;28;20225;-70
2023/04/07 04:24:40;;;;;;;50.73;22.43;;;;;;;2.46;79.87;94889.25;5032912;28;20268;-70
2023/04/07 04:27:06;;;;;;;47.37;22.60;;;;;;;2.24;81.60;94900.03;5034392;28;20343;-70
2023/04/07 04:29:32;;;;;;;48.90;21.87;;;;;;;2.17;81.89;94899.00;5007202;28;20229;-69
2023/04/07 04:31:57;;;;;;;44.80;21.67;;;;;;;2.37;80.98;94898.69;5001860;28;20715;-70
2023/04/07 04:34:23;;;;;;;43.93;21.17;;;;;;;2.34;81.37;94900.78;5002369;28;20234;-70
2023/04/07 04:36:48;;;;;;;42.73;19.67;;;;;;;2.20;80.36;94898.72;5031001;28;20217;-70
2023/04/07 04:39:14;;;;;;;37.20;17.70;;;;;;;1.98;79.60;94895.63;5047795;28;20229;-69
2023/04/07 04:41:40;;;;;;;36.63;17.57;;;;;;;2.08;79.78;94905.84;5030846;28;20229;-69
2023/04/07 04:44:05;;;;;;;35.80;16.60;;;;;;;2.49;77.41;94896.66;5030395;28;20234;-68
2023/04/07 04:46:31;;;;;;;36.73;17.57;;;;;;;2.37;77.79;94906.44;5015452;28;20237;-68
2023/04/07 04:48:56;;;;;;;42.57;18.23;;;;;;;2.08;79.25;94908.44;5002283;28;20234;-69
2023/04/07 04:51:22;;;;;;;36.13;17.90;;;;;;;2.52;79.13;94909.28;4995920;28;20265;-69
2023/04/07 04:53:47;;;;;;;37.33;18.33;;;;;;;2.69;77.45;94911.84;4998121;28;20280;-69
2023/04/07 04:56:13;;;;;;;37.30;17.90;;;;;;;2.50;78.01;94901.69;5019738;28;20241;-69
2023/04/07 04:58:45;;;;;;;38.97;17.57;;;;;;;2.57;78.29;94915.63;5018468;28;20264;-70
2023/04/07 05:01:11;;;;;;;34.83;16.77;;;;;;;2.76;77.00;94924.13;5001176;28;20244;-69
2023/04/07 05:03:37;;;;;;;33.53;16.87;;;;;;;2.53;76.54;94916.88;5014958;28;20772;-69
2023/04/07 05:06:02;;;;;;;40.20;17.93;;;;;;;2.63;76.70;94917.59;4997473;28;20238;-70
2023/04/07 05:08:28;;;;;;;32.00;16.03;;;;;;;2.81;76.02;94922.72;5031264;28;20280;-70
2023/04/07 05:10:54;;;;;;;34.83;16.53;;;;;;;3.17;76.95;94929.38;5013157;28;20284;-69
2023/04/07 05:13:20;;;;;;;32.43;16.47;;;;;;;3.28;73.93;94933.47;5018290;28;20667;-69
2023/04/07 05:15:45;;;;;;;34.17;15.73;;;;;;;3.31;73.67;94935.75;5021598;28;20692;-69
2023/04/07 05:18:11;;;;;;;31.40;16.27;;;;;;;3.22;72.81;94939.25;5015144;28;20268;-70
2023/04/07 05:20:36;;;;;;;37.70;17.43;;;;;;;3.16;72.59;94939.88;5038974;28;20957;-69
2023/04/07 05:23:02;;;;;;;34.83;17.20;;;;;;;3.51;71.71;94938.91;5026445;28;20242;-70
2023/04/07 05:25:27;;;;;;;37.20;16.87;;;;;;;5.02;65.94;94940.97;5022700;28;20241;-70
2023/04/07 05:27:53;;;;;;;36.63;16.53;;;;;;;5.80;63.30;94939.28;5009882;28;20263;-70
2023/04/07 05:30:18;;;;;;;31.40;16.20;;;;;;;5.37;64.84;94938.78;5017205;28;20225;-71
2023/04/07 05:32:44;;;;;;;35.17;16.63;;;;;;;4.30;66.44;94937.44;5020050;28;20307;-70
2023/04/07 05:35:10;;;;;;;31.67;15.17;;;;;;;4.06;66.94;94942.59;5032354;28;20315;-70
2023/04/07 05:37:35;;;;;;;29.57;15.60;;;;;;;4.12;68.23;94941.16;5000013;28;20734;-70
2023/04/07 05:40:03;;;;;;;28.73;14.00;;;;;;;3.86;68.21;94943.88;5022760;28;20965;-70
2023/04/07 05:42:29;;;;;;;32.30;14.90;;;;;;;3.58;68.88;94938.13;5035106;28;20264;-71
2023/04/07 05:44:55;;;;;;;32.50;15.17;;;;;;;3.75;68.98;94941.59;5015214;28;20240;-71
2023/04/07 05:47:20;;;;;;;27.13;14.87;;;;;;;3.90;68.10;94940.78;5016283;28;20240;-69
2023/04/07 05:49:46;;;;;;;36.63;14.67;;;;;;;3.70;68.83;94944.63;5016975;28;20255;-70
2023/04/07 05:52:14;;;;;;;28.50;14.63;;;;;;;4.19;67.87;94942.13;4993557;28;20329;-70
2023/04/07 05:54:40;;;;;;;26.53;13.90;;;;;;;3.99;69.57;94945.03;5025251;28;20233;-70
2023/04/07 05:57:06;;;;;;;29.63;13.97;;;;;;;4.13;67.83;94942.78;4999826;28;20237;-70
2023/04/07 05:59:32;;;;;;;27.10;14.37;;;;;;;4.20;67.33;94948.94;5004569;28;20238;-71
2023/04/07 06:01:58;;;;;;;29.47;14.97;;;;;;;4.12;67.84;94941.16;5002941;28;20261;-72
2023/04/07 06:04:24;;;;;;;34.07;15.60;;;;;;;3.93;67.91;94942.25;5033400;28;20238;-72
2023/04/07 06:06:49;;;;;;;31.63;15.03;;;;;;;4.11;68.76;94942.16;5019332;28;20233;-73
2023/04/07 06:09:15;;;;;;;35.00;16.13;;;;;;;4.41;67.85;94944.09;5033768;28;20262;-73
2023/04/07 06:11:41;;;;;;;33.40;15.90;;;;;;;4.40;67.65;94943.28;5019146;28;20242;-73
2023/04/07 06:14:06;;;;;;;34.33;17.03;;;;;;;4.28;68.21;94938.59;5032716;28;20234;-73
2023/04/07 06:16:32;;;;;;;35.00;16.63;;;;;;;3.95;69.05;94941.13;5033967;28;20610;-73
2023/04/07 06:18:57;;;;;;;26.77;14.30;;;;;;;4.12;67.27;94944.56;4999676;28;20304;-72
2023/04/07 06:21:24;;;;;;;31.70;14.93;;;;;;;4.35;67.70;94935.19;5014741;28;20311;-73
2023/04/07 06:23:49;;;;;;;33.50;16.60;;;;;;;4.07;67.78;94939.88;5017005;28;20267;-72
2023/04/07 06:26:15;;;;;;;34.20;15.07;;;;;;;4.88;66.08;94939.88;5032216;28;20229;-72
2023/04/07 06:28:40;;;;;;;29.23;13.93;;;;;;;4.91;63.55;94936.97;5029597;28;20238;-72
2023/04/07 06:31:07;;;;;;;30.07;14.80;;;;;;;5.37;64.23;94938.78;5017645;28;20276;-72
2023/04/07 06:33:33;;;;;;;27.67;13.87;;;;;;;5.40;62.12;94932.44;5033657;28;20278;-72
2023/04/07 06:35:58;;;;;;;27.73;14.23;;;;;;;5.42;63.09;94928.69;5034988;28;20242;-71
2023/04/07 06:38:24;;;;;;;32.13;15.43;;;;;;;5.59;63.25;94939.03;5016779;28;20311;-71
2023/04/07 06:40:50;;;;;;;31.33;16.33;;;;;;;5.56;62.16;94940.19;5018203;28;20233;-72
2023/04/07 06:43:15;;;;;;;30.90;15.10;;;;;;;6.15;62.39;94937.97;5015454;28;20264;-72
2023/04/07 06:45:41;;;;;;;30.17;14.93;;;;;;;6.20;59.93;94944.28;5002005;28;20229;-71
2023/04/07 06:48:09;;;;;;;27.77;13.90;;;;;;;6.16;59.34;94940.41;5029749;28;20236;-70
2023/04/07 06:50:36;;;;;;;26.67;14.10;;;;;;;6.73;58.21;94940.78;5013304;28;20245;-70
2023/04/07 06:53:02;;;;;;;31.20;14.73;;;;;;;6.62;57.67;94947.22;5014134;28;20234;-70
2023/04/07 06:55:27;;;;;;;25.77;14.07;;;;;;;6.88;57.93;94943.44;4983820;28;20353;-71
2023/04/07 06:57:53;;;;;;;28.80;14.70;;;;;;;6.85;58.72;94941.19;5028623;28;20631;-70
2023/04/07 07:00:19;;;;;;;26.80;13.87;;;;;;;6.97;58.13;94947.56;5017693;28;20312;-70
2023/04/07 07:02:44;;;;;;;29.40;14.10;;;;;;;7.07;57.01;94941.13;5019273;28;20231;-70
2023/04/07 07:05:10;;;;;;;25.07;13.90;;;;;;;6.74;58.03;94945.00;5010531;28;20272;-71
2023/04/07 07:07:36;;;;;;;29.40;14.47;;;;;;;7.46;58.01;94943.50;5012723;28;20621;-69
2023/04/07 07:10:05;;;;;;;28.33;13.90;;;;;;;7.91;57.23;94939.84;5029675;28;20244;-70
2023/04/07 07:12:31;;;;;;;26.87;13.63;;;;;;;8.18;54.88;94941.78;4998638;28;20288;-70
2023/04/07 07:14:56;;;;;;;26.53;13.63;;;;;;;8.78;54.44;94949.22;5032171;28;20230;-70
2023/04/07 07:17:22;;;;;;;26.17;13.03;;;;;;;8.88;51.87;94956.72;5025375;28;20236;-70
2023/04/07 07:19:47;;;;;;;29.53;14.30;;;;;;;8.76;50.69;94943.38;5016013;28;20246;-71
2023/04/07 07:22:13;;;;;;;26.60;13.63;;;;;;;7.90;53.12;94959.09;5024598;28;20226;-70
2023/04/07 07:24:38;;;;;;;31.27;14.90;;;;;;;7.16;54.64;94960.91;5020532;28;20225;-70
2023/04/07 07:27:04;;;;;;;26.27;14.43;;;;;;;7.64;55.22;94956.97;5022490;28;20379;-70
2023/04/07 07:29:30;;;;;;;28.77;14.27;;;;;;;7.44;53.61;94958.47;5001936;28;20234;-70
2023/04/07 07:31:55;;;;;;;21.23;8.63;;;;;;;7.67;49.92;94972.22;4997798;28;20238;-71
2023/04/07 07:34:21;;;;;;;13.33;7.23;;;;;;;7.79;48.65;94964.75;5033761;28;20241;-70
2023/04/07 07:36:46;;;;;;;13.27;7.20;;;;;;;7.85;49.26;94970.06;5006392;28;20640;-71
2023/04/07 07:39:13;;;;;;;28.97;14.60;;;;;;;7.51;53.70;94971.59;5015585;28;20237;-70
2023/04/07 07:41:38;;;;;;;28.67;14.47;;;;;;;7.60;55.02;94968.72;5024931;28;20233;-71
2023/04/07 07:44:04;;;;;;;28.20;14.23;;;;;;;7.48;56.08;94964.94;5014446;28;20237;-70
2023/04/07 07:46:30;;;;;;;30.87;16.13;;;;;;;7.66;55.99;94977.63;5013906;28;20246;-71
2023/04/07 07:48:55;;;;;;;34.97;16.40;;;;;;;7.85;54.80;94969.25;5032428;28;20248;-71
2023/04/07 07:51:21;;;;;;;29.67;14.57;;;;;;;7.59;54.96;94971.50;5047944;28;20237;-71
2023/04/07 07:53:46;;;;;;;15.57;7.70;;;;;;;7.88;49.13;94972.28;5004415;28;20236;-71
2023/04/07 07:56:12;;;;;;;12.10;6.73;;;;;;;8.21;47.58;94967.47;5004094;28;20763;-71
2023/04/07 07:58:37;;;;;;;16.23;7.47;;;;;;;8.30;47.30;94963.78;5015122;28;20245;-71
2023/04/07 08:01:03;;;;;;;13.47;7.57;;;;;;;8.58;47.00;94959.47;5000390;28;20233;-72
2023/04/07 08:03:28;;;;;;;11.07;6.30;;;;;;;8.33;45.40;94973.06;5022699;28;20226;-71
2023/04/07 08:05:54;;;;;;;10.50;6.40;;;;;;;8.08;44.87;94968.13;5018214;28;20272;-70
2023/04/07 08:08:20;;;;;;;13.43;7.37;;;;;;;8.34;45.45;94970.25;5030628;28;20234;-71
2023/04/07 08:10:45;;;;;;;11.23;6.40;;;;;;;8.28;45.35;94973.59;5030189;28;20228;-71
2023/04/07 08:13:11;;;;;;;14.40;6.50;;;;;;;8.20;46.04;94967.66;5006737;28;20228;-70
2023/04/07 08:15:38;;;;;;;13.23;7.30;;;;;;;8.51;45.74;94965.59;5024190;28;20221;-71
2023/04/07 08:18:05;;;;;;;13.77;6.47;;;;;;;8.45;44.78;94968.97;5005026;28;20233;-70
2023/04/07 08:20:30;;;;;;;13.83;6.60;;;;;;;8.19;44.88;94966.88;5012919;28;20600;-71
2023/04/07 08:22:56;;;;;;;12.50;6.63;;;;;;;8.50;44.88;94969.22;5012808;28;20237;-72
2023/04/07 08:25:21;;;;;;;13.47;6.77;;;;;;;8.59;44.30;94965.50;5034868;28;20258;-71
2023/04/07 08:27:47;;;;;;;12.83;6.90;;;;;;;8.89;44.13;94966.16;5020344;28;20320;-69
2023/04/07 08:30:12;;;;;;;16.83;7.20;;;;;;;9.11;43.48;94960.72;5008227;28;20233;-70
2023/04/07 08:32:40;;;;;;;18.87;8.70;;;;;;;9.06;43.90;94965.72;5039433;28;20222;-71
2023/04/07 08:35:06;;;;;;;16.23;8.53;;;;;;;8.92;44.37;94965.78;5011820;28;20316;-70
2023/04/07 08:37:32;;;;;;;15.53;6.93;;;;;;;8.75;45.61;94962.63;5015274;28;20274;-72
2023/04/07 08:39:58;;;;;;;13.93;7.00;;;;;;;8.55;44.62;94961.66;5016665;28;20788;-71
2023/04/07 08:42:26;;;;;;;15.60;7.93;;;;;;;8.27;44.87;94965.94;5005289;28;20233;-70
2023/04/07 08:44:52;;;;;;;15.93;7.60;;;;;;;8.53;45.19;94968.84;5004650;28;20226;-72
2023/04/07 08:47:18;;;;;;;11.70;6.70;;;;;;;8.64;43.95;94960.53;5034364;28;20234;-71
2023/04/07 08:49:44;;;;;;;13.17;7.00;;;;;;;8.79;43.00;94972.50;5014709;28;20665;-74
2023/04/07 08:52:14;;;;;;;11.27;6.27;;;;;;;9.15;42.07;94967.19;5035222;28;20258;-73
2023/04/07 08:54:40;;;;;;;15.17;9.07;;;;;;;9.31;42.47;94964.28;5020332;28;20225;-71
2023/04/07 08:57:06;;;;;;;10.73;7.27;;;;;;;9.10;42.29;94959.09;5034254;28;20291;-70
2023/04/07 08:59:32;;;;;;;11.20;6.37;;;;;;;9.21;42.92;94969.06;5016794;28;20241;-70
2023/04/07 09:01:58;;;;;;;9.87;6.33;;;;;;;9.06;41.88;94972.72;5021759;28;20256;-70
2023/04/07 09:04:24;;;;;;;11.77;6.50;;;;;;;9.07;42.79;94966.53;5024237;28;20321;-70
2023/04/07 09:06:50;;;;;;;12.63;6.83;;;;;;;9.26;42.17;94968.47;5017181;28;20317;-72
2023/04/07 09:09:15;;;;;;;11.97;7.40;;;;;;;9.13;43.16;94970.97;5015926;28;20257;-71
2023/04/07 09:11:41;;;;;;;13.70;7.20;;;;;;;8.89;42.56;94977.41;4990212;28;20237;-71
2023/04/07 09:14:06;;;;;;;12.87;7.27;;;;;;;8.85;42.75;94972.75;4996115;28;20265;-72
2023/04/07 09:16:32;;;;;;;12.27;7.10;;;;;;;9.09;43.05;94967.13;4998705;28;20230;-70
2023/04/07 09:18:57;;;;;;;15.23;7.97;;;;;;;9.50;43.54;94976.66;4985277;28;20323;-70
2023/04/07 09:21:23;;;;;;;11.40;7.57;;;;;;;9.33;42.58;94969.34;5014067;28;20731;-71
2023/04/07 09:23:49;;;;;;;14.50;8.00;;;;;;;9.28;42.19;94962.06;4998072;28;20235;-71
2023/04/07 09:26:23;;;;;;;14.93;8.00;;;;;;;9.52;41.91;94975.69;4996885;28;20242;-71
2023/04/07 09:28:58;;;;;;;14.70;8.23;;;;;;;9.39;42.35;94976.41;5016891;28;20229;-72
2023/04/07 09:31:44;;;;;;;11.40;7.10;;;;;;;9.62;41.53;94974.34;5000023;28;20778;-69
2023/04/07 09:34:30;;;;;;;11.30;7.40;;;;;;;9.61;41.52;94966.69;5032178;28;20238;-72
2023/04/07 09:36:56;;;;;;;12.40;7.63;;;;;;;9.34;41.87;94971.75;5033446;28;20229;-71
2023/04/07 09:39:22;;;;;;;14.67;7.77;;;;;;;9.79;42.28;94972.25;5007424;28;20519;-71
2023/04/07 09:41:47;;;;;;;15.77;8.80;;;;;;;9.91;40.92;94975.91;5019559;28;20313;-71
2023/04/07 09:44:13;;;;;;;13.00;7.50;;;;;;;9.84;41.80;94973.25;5009866;28;20221;-71
2023/04/07 09:46:57;;;;;;;12.23;8.07;;;;;;;10.15;41.12;94975.44;5007129;28;20226;-70
2023/04/07 09:49:24;;;;;;;12.70;7.47;;;;;;;9.74;40.66;94969.38;5032896;28;20305;-71
2023/04/07 09:51:52;;;;;;;13.27;8.03;;;;;;;9.52;40.83;94984.34;5031775;28;20259;-71
2023/04/07 09:54:36;;;;;;;18.43;8.97;;;;;;;9.54;41.65;94982.34;5034519;28;20658;-69
2023/04/07 09:57:03;;;;;;;14.77;7.87;;;;;;;9.45;41.78;94986.91;5026738;28;20225;-70
2023/04/07 09:59:29;;;;;;;15.67;7.77;;;;;;;9.69;42.11;94995.28;5021482;28;20242;-71
2023/04/07 10:01:55;;;;;;;14.50;7.90;;;;;;;9.64;41.76;94993.25;5015455;28;20240;-71
2023/04/07 10:04:21;;;;;;;15.90;8.80;;;;;;;9.98;42.78;94989.81;5017040;28;20241;-70
2023/04/07 10:06:47;;;;;;;13.67;8.00;;;;;;;10.01;42.02;94987.63;5001633;28;20260;-71
2023/04/07 10:09:13;;;;;;;14.73;7.77;;;;;;;10.00;42.02;94986.03;5018323;28;20871;-71
2023/04/07 10:11:40;;;;;;;12.80;7.60;;;;;;;10.23;42.17;94980.50;5014958;28;20700;-70
2023/04/07 10:14:05;;;;;;;12.07;7.13;;;;;;;9.99;41.97;94984.41;5012002;28;21020;-71
2023/04/07 10:16:31;;;;;;;13.97;7.17;;;;;;;10.00;41.51;94983.41;5015515;28;20311;-71
2023/04/07 10:18:56;;;;;;;15.27;7.83;;;;;;;10.22;41.95;94986.75;5013951;28;20261;-72
2023/04/07 10:21:22;;;;;;;14.90;7.60;;;;;;;10.41;42.03;94985.97;5004249;28;20230;-71
2023/04/07 10:24:02;;;;;;;15.57;8.13;;;;;;;10.29;41.72;94981.53;5021637;28;20234;-72
2023/04/07 10:26:29;;;;;;;12.47;7.80;;;;;;;10.25;41.91;94975.88;5032564;28;20242;-70
2023/04/07 10:28:58;;;;;;;13.87;8.20;;;;;;;9.51;44.05;94980.09;5009295;28;20320;-70
2023/04/07 10:31:24;;;;;;;12.93;7.60;;;;;;;9.38;44.43;94985.25;5016732;28;20230;-72
2023/04/07 10:33:51;;;;;;;16.97;7.73;;;;;;;9.25;44.22;94985.13;5007910;28;20648;-70
2023/04/07 10:36:19;;;;;;;12.70;7.90;;;;;;;9.05;45.21;94989.41;5032735;28;20234;-70
2023/04/07 10:39:06;;;;;;;13.83;7.43;;;;;;;9.41;46.19;94987.44;4999797;28;20234;-71
2023/04/07 10:41:35;;;;;;;13.07;8.03;;;;;;;9.22;46.45;94990.72;5034170;28;20291;-72
2023/04/07 10:44:08;;;;;;;14.30;7.83;;;;;;;8.89;47.40;94989.66;5024785;28;20268;-72
2023/04/07 10:46:46;;;;;;;13.90;7.20;;;;;;;9.37;47.33;94996.69;5016287;28;20241;-70
2023/04/07 10:49:12;;;;;;;13.93;8.07;;;;;;;9.47;45.90;94992.75;5029464;28;20226;-71
2023/04/07 10:51:38;;;;;;;14.37;8.13;;;;;;;9.47;45.67;94992.75;5005524;28;20236;-71
2023/04/07 10:54:22;;;;;;;14.53;7.87;;;;;;;9.62;45.43;94997.88;4986995;28;20628;-72
2023/04/07 10:57:10;;;;;;;12.87;7.90;;;;;;;9.90;44.72;94997.81;4996630;28;20231;-70
2023/04/07 10:59:39;;;;;;;13.70;7.30;;;;;;;9.70;43.52;95002.13;5010903;28;20704;-70
2023/04/07 11:02:14;;;;;;;12.43;7.80;;;;;;;9.49;44.91;95006.41;5010119;28;20329;-70
2023/04/07 11:04:44;;;;;;;14.63;7.60;;;;;;;9.32;43.98;94999.88;5010258;28;20230;-72
2023/04/07 11:07:10;;;;;;;13.43;7.63;;;;;;;9.70;44.76;94999.50;5007762;28;20276;-72
2023/04/07 11:09:36;;;;;;;14.13;8.13;;;;;;;9.99;45.16;94997.47;5016384;28;20221;-71
2023/04/07 11:12:02;;;;;;;12.80;7.73;;;;;;;9.87;45.24;95008.66;5008583;28;20234;-71
2023/04/07 11:14:28;;;;;;;14.53;7.80;;;;;;;9.78;44.73;95009.81;5028513;28;20226;-71
2023/04/07 11:16:54;;;;;;;13.80;7.60;;;;;;;9.62;46.44;95004.91;5018417;28;20237;-71
2023/04/07 11:19:20;;;;;;;15.47;8.10;;;;;;;9.87;44.92;94998.19;5036300;28;20233;-71
2023/04/07 11:21:45;;;;;;;15.70;8.20;;;;;;;9.92;46.01;95001.03;5007433;28;20313;-70
2023/04/07 11:24:31;;;;;;;14.67;8.20;;;;;;;9.47;45.42;94997.97;5018903;28;20233;-71
2023/04/07 11:26:56;;;;;;;14.90;7.97;;;;;;;9.75;47.17;95005.78;5007600;28;20229;-70